createdAt,value
2018-04-18T00:01:22.679Z,4.93
2018-04-18T00:04:25.931Z,5.47
2018-04-18T00:07:29.221Z,5.03
2018-04-18T00:10:32.466Z,4.73
2018-04-18T00:13:35.734Z,5.00
2018-04-18T00:16:39.019Z,4.60
2018-04-18T00:19:42.281Z,5.57
2018-04-18T00:22:45.548Z,5.23
2018-04-18T00:25:48.829Z,4.87
2018-04-18T00:28:52.098Z,4.90
2018-04-18T00:31:55.442Z,4.73
2018-04-18T00:34:58.736Z,5.40
2018-04-18T00:38:20.555Z,4.77
2018-04-18T00:41:30.720Z,4.43
2018-04-18T00:44:34.758Z,4.70
2018-04-18T00:47:38.024Z,4.10
2018-04-18T00:50:42.273Z,4.03
2018-04-18T00:53:45.531Z,3.80
2018-04-18T00:56:48.777Z,4.43
2018-04-18T00:59:52.045Z,4.00
2018-04-18T01:02:55.322Z,4.43
2018-04-18T01:05:58.599Z,4.40
2018-04-18T01:09:01.847Z,4.73
2018-04-18T01:12:05.094Z,4.57
2018-04-18T01:15:08.386Z,4.80
2018-04-18T01:18:11.648Z,4.33
2018-04-18T01:21:14.901Z,5.40
2018-04-18T01:24:18.197Z,4.40
2018-04-18T01:27:21.591Z,5.30
2018-04-18T01:30:24.842Z,4.60
2018-04-18T01:33:28.113Z,4.83
2018-04-18T01:36:32.145Z,5.07
2018-04-18T01:39:35.417Z,4.87
2018-04-18T01:42:38.694Z,5.20
2018-04-18T01:45:41.949Z,5.30
2018-04-18T01:48:45.970Z,5.13
2018-04-18T01:51:49.996Z,4.83
2018-04-18T01:54:53.245Z,5.00
2018-04-18T01:57:56.513Z,4.67
2018-04-18T02:00:59.756Z,4.83
2018-04-18T02:04:03.024Z,4.63
2018-04-18T02:07:06.272Z,4.67
2018-04-18T02:10:10.310Z,4.93
2018-04-18T02:13:13.601Z,5.43
2018-04-18T02:16:16.850Z,4.77
2018-04-18T02:19:20.111Z,4.93
2018-04-18T02:22:23.376Z,4.90
2018-04-18T02:25:27.389Z,4.97
2018-04-18T02:28:31.402Z,5.03
2018-04-18T02:31:35.418Z,4.73
2018-04-18T02:34:39.458Z,4.70
2018-04-18T02:37:42.717Z,4.47
2018-04-18T02:40:45.978Z,4.87
2018-04-18T02:43:49.219Z,5.07
2018-04-18T02:46:52.483Z,4.80
2018-04-18T02:49:55.748Z,4.63
2018-04-18T02:52:58.995Z,4.50
2018-04-18T02:56:02.257Z,4.50
2018-04-18T02:59:05.509Z,4.33
2018-04-18T03:02:08.773Z,5.03
2018-04-18T03:05:12.035Z,4.53
2018-04-18T03:08:15.320Z,4.83
2018-04-18T03:11:18.573Z,4.33
2018-04-18T03:14:21.924Z,4.77
2018-04-18T03:17:25.204Z,4.93
2018-04-18T03:20:28.491Z,4.40
2018-04-18T03:23:33.103Z,4.37
2018-04-18T03:26:36.420Z,4.67
2018-04-18T03:29:39.702Z,4.83
2018-04-18T03:32:42.969Z,4.97
2018-04-18T03:35:46.327Z,4.20
2018-04-18T03:38:50.345Z,4.83
2018-04-18T03:41:53.596Z,5.07
2018-04-18T03:44:56.855Z,4.90
2018-04-18T03:48:00.112Z,5.27
2018-04-18T03:51:04.125Z,5.47
2018-04-18T03:54:08.186Z,5.30
2018-04-18T03:57:11.550Z,5.17
2018-04-18T04:00:15.578Z,5.03
2018-04-18T04:03:18.878Z,5.00
2018-04-18T04:06:22.146Z,5.23
2018-04-18T04:09:25.480Z,4.40
2018-04-18T04:12:28.723Z,5.33
2018-04-18T04:15:32.782Z,5.17
2018-04-18T04:18:54.525Z,4.80
2018-04-18T04:22:17.426Z,5.50
2018-04-18T04:25:21.447Z,5.20
2018-04-18T04:28:24.696Z,6.70
2018-04-18T04:31:28.033Z,5.10
2018-04-18T04:34:32.840Z,5.30
2018-04-18T04:37:36.159Z,5.07
2018-04-18T04:40:39.418Z,4.83
2018-04-18T04:43:42.703Z,5.40
2018-04-18T04:46:46.748Z,5.00
2018-04-18T04:49:50.023Z,4.50
2018-04-18T04:52:53.340Z,4.90
2018-04-18T04:55:56.618Z,5.47
2018-04-18T04:58:59.866Z,5.20
2018-04-18T05:02:03.140Z,4.80
2018-04-18T05:05:06.437Z,4.87
2018-04-18T05:08:09.683Z,5.10
2018-04-18T05:11:13.719Z,4.67
2018-04-18T05:14:16.980Z,4.23
2018-04-18T05:17:20.234Z,4.47
2018-04-18T05:20:23.529Z,4.33
2018-04-18T05:23:26.774Z,4.90
2018-04-18T05:26:30.038Z,5.03
2018-04-18T05:29:33.368Z,5.53
2018-04-18T05:32:36.657Z,5.03
2018-04-18T05:35:39.905Z,5.33
2018-04-18T05:38:43.152Z,4.70
2018-04-18T05:41:46.453Z,6.37
2018-04-18T05:44:49.725Z,8.97
2018-04-18T05:47:52.980Z,7.63
2018-04-18T05:50:57.037Z,5.50
2018-04-18T05:54:00.319Z,4.17
2018-04-18T05:57:03.613Z,4.10
2018-04-18T06:00:06.876Z,4.30
2018-04-18T06:03:10.962Z,4.17
2018-04-18T06:06:14.289Z,3.77
2018-04-18T06:09:17.521Z,3.50
2018-04-18T06:12:20.770Z,3.40
2018-04-18T06:15:24.050Z,3.53
2018-04-18T06:18:27.818Z,3.20
2018-04-18T06:21:31.115Z,3.50
2018-04-18T06:24:34.373Z,3.03
2018-04-18T06:27:37.813Z,3.03
2018-04-18T06:30:41.105Z,3.03
2018-04-18T06:33:44.405Z,2.97
2018-04-18T06:36:47.765Z,3.20
2018-04-18T06:39:51.040Z,3.03
2018-04-18T06:42:54.304Z,3.63
2018-04-18T06:45:57.595Z,3.47
2018-04-18T06:49:00.822Z,3.23
2018-04-18T06:52:04.105Z,3.20
2018-04-18T06:55:07.388Z,3.20
2018-04-18T06:58:10.648Z,2.83
2018-04-18T07:01:13.932Z,2.90
2018-04-18T07:04:17.184Z,3.23
2018-04-18T07:07:20.448Z,3.57
2018-04-18T07:10:23.796Z,3.20
2018-04-18T07:13:27.265Z,3.50
2018-04-18T07:16:31.298Z,3.13
2018-04-18T07:19:34.569Z,3.03
2018-04-18T07:22:37.843Z,2.87
2018-04-18T07:25:41.113Z,3.30
2018-04-18T07:28:44.364Z,2.80
2018-04-18T07:31:48.451Z,3.47
2018-04-18T07:34:51.711Z,3.33
2018-04-18T07:37:55.000Z,3.60
2018-04-18T07:40:58.274Z,3.37
2018-04-18T07:44:02.294Z,3.60
2018-04-18T07:47:06.327Z,4.73
2018-04-18T07:50:09.593Z,4.17
2018-04-18T07:53:12.838Z,4.73
2018-04-18T07:56:16.099Z,4.63
2018-04-18T07:59:20.131Z,4.63
2018-04-18T08:02:23.552Z,5.43
2018-04-18T08:05:26.797Z,4.80
2018-04-18T08:08:30.335Z,4.63
2018-04-18T08:11:33.574Z,5.53
2018-04-18T08:14:36.838Z,4.63
2018-04-18T08:17:40.098Z,4.83
2018-04-18T08:20:44.137Z,5.63
2018-04-18T08:23:47.398Z,4.93
2018-04-18T08:26:50.673Z,4.17
2018-04-18T08:29:53.946Z,4.77
2018-04-18T08:32:57.331Z,4.37
2018-04-18T08:36:00.599Z,4.17
2018-04-18T08:39:03.841Z,4.37
2018-04-18T08:42:07.138Z,4.23
2018-04-18T08:45:10.380Z,4.57
2018-04-18T08:48:13.664Z,4.67
2018-04-18T08:51:16.941Z,4.60
2018-04-18T08:54:20.190Z,5.10
2018-04-18T08:57:24.249Z,4.20
2018-04-18T09:00:27.543Z,4.30
2018-04-18T09:03:31.184Z,3.93
2018-04-18T09:06:34.509Z,3.93
2018-04-18T09:09:38.588Z,4.40
2018-04-18T09:12:41.875Z,4.20
2018-04-18T09:15:45.156Z,4.27
2018-04-18T09:18:48.411Z,4.60
2018-04-18T09:21:51.702Z,4.33
2018-04-18T09:24:55.719Z,4.83
2018-04-18T09:27:59.802Z,3.23
2018-04-18T09:31:03.150Z,3.13
2018-04-18T09:34:07.224Z,3.23
2018-04-18T09:37:10.514Z,3.30
2018-04-18T09:40:13.886Z,3.77
2018-04-18T09:43:17.144Z,4.53
2018-04-18T09:46:20.474Z,3.90
2018-04-18T09:49:23.764Z,3.90
2018-04-18T09:52:27.884Z,3.37
2018-04-18T09:55:31.910Z,3.17
2018-04-18T09:58:35.209Z,2.90
2018-04-18T10:01:43.166Z,3.10
2018-04-18T10:04:46.491Z,3.10
2018-04-18T10:07:49.745Z,3.03
2018-04-18T10:10:53.006Z,2.73
2018-04-18T10:13:56.293Z,2.80
2018-04-18T10:17:00.352Z,3.53
2018-04-18T10:20:03.614Z,2.67
2018-04-18T10:23:07.636Z,3.07
2018-04-18T10:26:10.890Z,2.70
2018-04-18T10:29:14.189Z,2.50
2018-04-18T10:32:17.457Z,2.13
2018-04-18T10:35:20.723Z,2.40
2018-04-18T10:38:23.978Z,3.23
2018-04-18T10:41:27.231Z,2.80
2018-04-18T10:44:30.519Z,2.70
2018-04-18T10:47:33.790Z,2.37
2018-04-18T10:50:37.049Z,1.77
2018-04-18T10:53:40.306Z,2.43
2018-04-18T10:56:43.620Z,2.23
2018-04-18T10:59:46.868Z,2.20
2018-04-18T11:02:50.136Z,2.90
2018-04-18T11:05:53.429Z,3.87
2018-04-18T11:08:56.649Z,3.93
2018-04-18T11:11:59.929Z,3.10
2018-04-18T11:15:04.006Z,2.80
2018-04-18T11:18:07.263Z,2.63
2018-04-18T11:21:10.511Z,4.27
2018-04-18T11:24:13.769Z,6.40
2018-04-18T11:27:17.044Z,5.63
2018-04-18T11:30:20.324Z,4.00
2018-04-18T11:33:23.602Z,3.83
2018-04-18T11:36:26.950Z,4.73
2018-04-18T11:39:30.223Z,3.90
2018-04-18T11:42:33.501Z,4.27
2018-04-18T11:45:36.771Z,4.13
2018-04-18T11:48:40.033Z,3.30
2018-04-18T11:51:43.309Z,4.73
2018-04-18T11:54:46.561Z,4.10
2018-04-18T11:57:49.872Z,4.10
2018-04-18T12:00:53.127Z,3.80
2018-04-18T12:03:56.420Z,3.83
2018-04-18T12:06:59.731Z,3.57
2018-04-18T12:10:02.989Z,4.40
2018-04-18T12:13:08.850Z,3.60
2018-04-18T12:16:12.422Z,4.27
2018-04-18T12:19:15.811Z,5.10
2018-04-18T12:22:20.353Z,4.50
2018-04-18T12:25:24.173Z,4.93
2018-04-18T12:28:40.955Z,4.27
2018-04-18T12:31:45.803Z,3.83
2018-04-18T12:34:54.730Z,4.00
2018-04-18T12:38:07.359Z,4.40
2018-04-18T12:41:11.090Z,2.97
2018-04-18T12:44:14.478Z,2.87
2018-04-18T12:47:19.489Z,3.13
2018-04-18T12:50:23.675Z,2.17
2018-04-18T12:53:28.025Z,4.80
2018-04-18T12:56:31.477Z,3.20
2018-04-18T12:59:34.845Z,2.67
2018-04-18T13:02:39.699Z,2.20
2018-04-18T13:05:42.969Z,1.70
2018-04-18T13:08:46.228Z,2.50
2018-04-18T13:12:14.153Z,2.60
2018-04-18T13:15:17.414Z,2.50
2018-04-18T13:18:20.901Z,1.33
2018-04-18T13:21:24.142Z,1.33
2018-04-18T13:24:27.402Z,1.67
2018-04-18T13:27:31.443Z,2.20
2018-04-18T13:30:34.711Z,3.00
2018-04-18T13:33:38.751Z,3.27
2018-04-18T13:36:42.043Z,2.43
2018-04-18T13:39:45.270Z,2.67
2018-04-18T13:42:49.327Z,3.00
2018-04-18T13:45:52.589Z,2.63
2018-04-18T13:48:55.856Z,2.37
2018-04-18T13:51:59.290Z,1.70
2018-04-18T13:55:02.554Z,2.10
2018-04-18T13:58:06.490Z,2.63
2018-04-18T14:01:09.791Z,3.00
2018-04-18T14:04:13.311Z,3.37
2018-04-18T14:07:16.626Z,3.40
2018-04-18T14:10:19.890Z,3.43
2018-04-18T14:13:23.262Z,2.63
2018-04-18T14:16:26.523Z,2.80
2018-04-18T14:19:29.800Z,2.63
2018-04-18T14:22:33.175Z,3.07
2018-04-18T14:25:36.465Z,3.80
2018-04-18T14:28:39.715Z,3.33
2018-04-18T14:31:42.971Z,2.73
2018-04-18T14:34:46.269Z,2.97
2018-04-18T14:37:49.589Z,2.93
2018-04-18T14:40:53.661Z,3.40
2018-04-18T14:43:56.947Z,3.87
2018-04-18T14:47:02.425Z,3.60
2018-04-18T14:50:05.716Z,3.33
2018-04-18T14:53:09.011Z,3.27
2018-04-18T14:56:12.291Z,2.83
2018-04-18T14:59:15.559Z,3.57
2018-04-18T15:02:18.869Z,2.80
2018-04-18T15:05:22.937Z,2.93
2018-04-18T15:08:26.198Z,3.80
2018-04-18T15:11:30.260Z,3.80
2018-04-18T15:14:33.606Z,2.83
2018-04-18T15:17:37.692Z,2.73
2018-04-18T15:20:41.008Z,3.33
2018-04-18T15:23:44.277Z,3.00
2018-04-18T15:26:47.535Z,3.17
2018-04-18T15:29:50.832Z,2.57
2018-04-18T15:32:55.629Z,3.30
2018-04-18T15:35:59.196Z,3.07
2018-04-18T15:39:03.394Z,2.67
2018-04-18T15:42:06.688Z,3.50
2018-04-18T15:45:10.082Z,3.80
2018-04-18T15:48:14.350Z,3.07
2018-04-18T15:51:17.630Z,3.50
2018-04-18T15:54:20.932Z,3.20
2018-04-18T15:57:24.244Z,3.73
2018-04-18T16:00:27.523Z,3.37
2018-04-18T16:03:31.315Z,3.87
2018-04-18T16:06:35.365Z,3.03
2018-04-18T16:09:38.751Z,3.93
2018-04-18T16:12:42.075Z,3.83
2018-04-18T16:15:45.457Z,3.70
2018-04-18T16:18:48.863Z,3.57
2018-04-18T16:21:52.601Z,3.23
2018-04-18T16:24:57.515Z,3.63
2018-04-18T16:28:00.933Z,4.20
2018-04-18T16:31:04.216Z,3.90
2018-04-18T16:34:07.513Z,3.80
2018-04-18T16:37:10.966Z,3.93
2018-04-18T16:40:15.151Z,4.07
2018-04-18T16:43:18.888Z,3.93
2018-04-18T16:46:22.285Z,3.23
2018-04-18T16:49:26.452Z,4.20
2018-04-18T16:52:29.824Z,4.60
2018-04-18T16:55:33.895Z,4.00
2018-04-18T16:58:37.199Z,3.83
2018-04-18T17:02:05.094Z,3.87
2018-04-18T17:05:09.479Z,3.50
2018-04-18T17:08:12.763Z,3.63
2018-04-18T17:11:16.056Z,2.60
2018-04-18T17:14:19.542Z,3.40
2018-04-18T17:17:22.798Z,3.00
2018-04-18T17:20:26.201Z,3.20
2018-04-18T17:23:29.543Z,2.93
2018-04-18T17:26:32.848Z,2.80
2018-04-18T17:29:36.142Z,3.00
2018-04-18T17:32:40.449Z,2.93
2018-04-18T17:35:44.497Z,2.80
2018-04-18T17:38:47.759Z,2.70
2018-04-18T17:41:51.795Z,2.80
2018-04-18T17:44:55.075Z,3.27
2018-04-18T17:47:59.098Z,2.60
2018-04-18T17:51:02.390Z,3.20
2018-04-18T17:54:05.777Z,3.55
2018-04-18T17:57:09.831Z,3.37
2018-04-18T18:00:13.117Z,3.30
2018-04-18T18:03:17.134Z,6.90
2018-04-18T18:06:20.449Z,3.53
2018-04-18T18:09:24.266Z,2.87
2018-04-18T18:12:27.525Z,3.33
2018-04-18T18:15:31.600Z,2.10
2018-04-18T18:18:34.859Z,2.20
2018-04-18T18:21:38.893Z,3.27
2018-04-18T18:24:42.154Z,6.27
2018-04-18T18:27:46.189Z,7.27
2018-04-18T18:30:50.226Z,8.07
2018-04-18T18:33:53.500Z,6.23
2018-04-18T18:36:56.812Z,6.10
2018-04-18T18:40:00.100Z,5.57
2018-04-18T18:43:09.141Z,4.97
2018-04-18T18:46:12.470Z,4.23
2018-04-18T18:49:16.506Z,7.70
2018-04-18T18:52:19.799Z,4.60
2018-04-18T18:55:23.075Z,3.37
2018-04-18T18:58:26.394Z,3.30
2018-04-18T19:01:29.654Z,3.13
2018-04-18T19:04:33.005Z,3.20
2018-04-18T19:07:36.321Z,3.07
2018-04-18T19:10:39.684Z,3.17
2018-04-18T19:13:43.726Z,2.83
2018-04-18T19:16:46.996Z,3.03
2018-04-18T19:19:50.287Z,3.20
2018-04-18T19:22:54.433Z,3.07
2018-04-18T19:25:58.684Z,3.85
2018-04-18T19:29:02.026Z,3.37
2018-04-18T19:32:06.223Z,3.77
2018-04-18T19:35:09.501Z,3.43
2018-04-18T19:38:12.788Z,3.13
2018-04-18T19:41:16.073Z,3.53
2018-04-18T19:44:19.355Z,2.90
2018-04-18T19:47:25.685Z,3.40
2018-04-18T19:50:28.960Z,3.27
2018-04-18T19:53:32.705Z,3.60
2018-04-18T19:56:36.800Z,2.77
2018-04-18T19:59:40.919Z,3.43
2018-04-18T20:02:44.196Z,3.40
2018-04-18T20:05:48.234Z,3.40
2018-04-18T20:12:25.217Z,4.07
2018-04-18T20:15:28.697Z,3.70
2018-04-18T20:18:31.944Z,3.83
2018-04-18T20:21:36.030Z,3.70
2018-04-18T20:24:39.305Z,3.87
2018-04-18T20:27:42.565Z,3.77
2018-04-18T20:30:45.862Z,3.22
2018-04-18T20:33:49.141Z,3.30
2018-04-18T20:36:53.170Z,3.33
2018-04-18T20:39:56.436Z,3.83
2018-04-18T20:42:59.762Z,3.50
2018-04-18T20:46:34.778Z,3.80
2018-04-18T20:49:40.213Z,3.33
2018-04-18T20:52:43.470Z,4.33
2018-04-18T20:55:47.530Z,3.70
2018-04-18T20:58:50.822Z,3.50
2018-04-18T21:01:54.121Z,3.83
2018-04-18T21:04:57.463Z,3.53
2018-04-18T21:08:00.725Z,3.70
2018-04-18T21:11:03.988Z,3.80
2018-04-18T21:14:07.341Z,4.20
2018-04-18T21:17:10.603Z,4.43
2018-04-18T21:20:13.880Z,4.57
2018-04-18T21:23:19.158Z,4.27
2018-04-18T21:26:22.432Z,4.17
2018-04-18T21:29:26.468Z,3.60
2018-04-18T21:32:30.139Z,3.60
2018-04-18T21:35:34.172Z,3.67
2018-04-18T21:38:37.460Z,4.00
2018-04-18T21:41:41.520Z,4.17
2018-04-18T21:44:44.809Z,3.80
2018-04-18T21:47:48.073Z,3.60
2018-04-18T21:50:51.364Z,3.60
2018-04-18T21:53:55.434Z,4.40
2018-04-18T21:56:59.465Z,3.73
2018-04-18T22:00:02.736Z,3.85
2018-04-18T22:03:06.009Z,4.60
2018-04-18T22:06:09.328Z,3.60
2018-04-18T22:09:12.634Z,4.15
2018-04-18T22:12:15.901Z,3.67
2018-04-18T22:15:19.178Z,3.43
2018-04-18T22:18:23.351Z,3.97
2018-04-18T22:21:27.449Z,3.90
2018-04-18T22:24:30.720Z,3.97
2018-04-18T22:27:50.134Z,3.90
2018-04-18T22:30:53.697Z,3.40
2018-04-18T22:33:57.739Z,3.90
2018-04-18T22:37:01.042Z,4.30
2018-04-18T22:40:04.300Z,3.83
2018-04-18T22:43:08.365Z,4.27
2018-04-18T22:46:11.633Z,3.80
2018-04-18T22:49:14.949Z,4.40
2018-04-18T22:52:18.825Z,4.07
2018-04-18T22:55:22.868Z,4.63
2018-04-18T22:58:26.184Z,4.30
2018-04-18T23:01:29.715Z,4.30
2018-04-18T23:04:32.978Z,4.20
2018-04-18T23:07:36.244Z,4.20
2018-04-18T23:10:40.295Z,4.53
2018-04-18T23:13:43.565Z,3.77
2018-04-18T23:16:46.869Z,4.17
2018-04-18T23:19:50.148Z,4.97
2018-04-18T23:22:55.037Z,4.07
2018-04-18T23:25:58.295Z,4.43
2018-04-18T23:29:01.567Z,4.40
2018-04-18T23:32:04.847Z,4.57
2018-04-18T23:35:08.186Z,4.37
2018-04-18T23:38:12.237Z,4.23
2018-04-18T23:41:15.513Z,4.17
2018-04-18T23:44:18.846Z,4.32
2018-04-18T23:47:22.112Z,4.73
2018-04-18T23:50:25.458Z,4.80
2018-04-18T23:53:28.716Z,4.15
2018-04-18T23:56:31.966Z,3.70
2018-04-18T23:59:36.005Z,4.00
